Time;durP1;ratioP1;P1;durP2;ratioP2;P2;SDS_P1;SDS_P2;PMS_P1;PMS_P2;Temp;Humidity;BMP_temperature;BMP_pressure;BME280_temperature;BME280_humidity;BME280_pressure;Samples;Min_cycle;Max_cycle;Signal;HPM_P1;HPM_P2
2023/05/31 00:01:43;;;;;;;3.95;2.88;;;12.10;99.90;;;;;;4896749;29;20051;-67
2023/05/31 00:04:09;;;;;;;4.13;2.85;;;12.10;99.90;;;;;;4901767;29;20031;-67
2023/05/31 00:06:36;;;;;;;3.60;3.10;;;12.10;99.90;;;;;;4903946;29;20046;-67
2023/05/31 00:09:03;;;;;;;5.18;3.17;;;12.00;99.90;;;;;;4907632;29;20039;-67
2023/05/31 00:11:29;;;;;;;4.05;2.85;;;12.00;99.90;;;;;;4903105;29;20043;-67
2023/05/31 00:13:55;;;;;;;4.18;2.75;;;12.00;99.90;;;;;;4871432;29;20048;-67
2023/05/31 00:16:21;;;;;;;4.15;2.08;;;12.00;99.90;;;;;;4902616;29;20042;-67
2023/05/31 00:18:48;;;;;;;4.35;3.20;;;11.90;99.90;;;;;;4901390;29;20024;-67
2023/05/31 00:21:14;;;;;;;3.97;2.00;;;11.90;99.90;;;;;;4893762;29;20046;-68
2023/05/31 00:23:40;;;;;;;5.05;2.90;;;11.90;99.90;;;;;;4885007;29;20036;-67
2023/05/31 00:26:07;;;;;;;4.95;3.42;;;11.90;99.90;;;;;;4900197;29;20525;-67
2023/05/31 00:28:33;;;;;;;4.00;2.90;;;11.90;99.90;;;;;;4887798;29;20024;-68
2023/05/31 00:30:59;;;;;;;4.85;3.25;;;11.80;99.90;;;;;;4887090;29;20039;-67
2023/05/31 00:33:26;;;;;;;4.57;2.42;;;11.80;99.90;;;;;;4888740;29;20044;-67
2023/05/31 00:35:52;;;;;;;3.08;2.55;;;11.80;99.90;;;;;;4901771;29;20031;-66
2023/05/31 00:38:18;;;;;;;7.10;3.00;;;11.70;99.90;;;;;;4899362;29;20031;-67
2023/05/31 00:40:45;;;;;;;4.65;2.67;;;11.70;99.90;;;;;;4896731;29;20040;-67
2023/05/31 00:43:11;;;;;;;5.18;3.67;;;11.70;99.90;;;;;;4901738;29;20046;-67
2023/05/31 00:45:38;;;;;;;4.30;3.10;;;11.70;99.90;;;;;;4868420;29;20055;-67
2023/05/31 00:48:05;;;;;;;7.30;3.58;;;11.70;99.90;;;;;;4885215;29;20058;-67
2023/05/31 00:50:31;;;;;;;4.22;3.03;;;11.60;99.90;;;;;;4863816;29;20900;-67
2023/05/31 00:53:00;;;;;;;7.05;3.80;;;11.60;99.90;;;;;;4889130;29;20054;-67
2023/05/31 00:55:28;;;;;;;6.45;3.65;;;11.60;99.90;;;;;;4905575;29;20039;-67
2023/05/31 00:57:55;;;;;;;6.05;3.85;;;11.60;99.90;;;;;;4901783;28;20620;-67
2023/05/31 01:00:21;;;;;;;4.50;2.90;;;11.50;99.90;;;;;;4878112;29;20484;-67
2023/05/31 01:02:50;;;;;;;3.92;3.00;;;11.50;99.90;;;;;;4884357;29;20044;-67
2023/05/31 01:05:17;;;;;;;4.63;3.40;;;11.50;99.90;;;;;;4900399;29;20066;-67
2023/05/31 01:07:44;;;;;;;7.75;3.10;;;11.50;99.90;;;;;;4899943;29;20168;-67
2023/05/31 01:10:13;;;;;;;8.88;4.70;;;11.40;99.90;;;;;;4892984;29;20475;-67
2023/05/31 01:12:51;;;;;;;4.72;2.97;;;11.40;99.90;;;;;;4884825;29;20044;-67
2023/05/31 01:15:27;;;;;;;4.68;3.15;;;11.40;99.90;;;;;;4905937;29;23105;-67
2023/05/31 01:18:10;;;;;;;5.65;4.13;;;11.40;99.90;;;;;;4873294;29;20046;-67
2023/05/31 01:20:39;;;;;;;7.47;4.03;;;11.30;99.90;;;;;;4898003;29;20036;-67
2023/05/31 01:23:25;;;;;;;5.07;3.90;;;11.30;99.90;;;;;;4903713;29;20858;-68
2023/05/31 01:26:12;;;;;;;5.38;3.55;;;11.30;99.90;;;;;;4904214;29;20384;-67
2023/05/31 01:28:41;;;;;;;7.28;4.25;;;11.30;99.90;;;;;;4871915;29;20051;-67
2023/05/31 01:31:10;;;;;;;8.68;5.00;;;11.30;99.90;;;;;;4898546;29;20048;-67
2023/05/31 01:33:38;;;;;;;6.07;4.35;;;11.30;99.90;;;;;;4888421;29;20551;-67
2023/05/31 01:36:05;;;;;;;7.78;4.63;;;11.30;99.90;;;;;;4892763;29;20050;-68
2023/05/31 01:38:31;;;;;;;7.22;4.20;;;11.30;99.90;;;;;;4893618;29;20035;-67
2023/05/31 01:40:58;;;;;;;6.97;4.70;;;11.20;99.90;;;;;;4898821;29;20044;-67
2023/05/31 01:43:28;;;;;;;5.60;3.78;;;11.20;99.90;;;;;;4887839;29;20042;-67
2023/05/31 01:45:57;;;;;;;10.93;5.20;;;11.20;99.90;;;;;;4904019;29;20031;-67
2023/05/31 01:48:27;;;;;;;5.50;3.78;;;11.20;99.90;;;;;;4870418;29;20046;-67
2023/05/31 01:50:55;;;;;;;6.10;3.80;;;11.20;99.90;;;;;;4882615;29;20048;-67
2023/05/31 01:53:22;;;;;;;8.13;6.05;;;11.20;99.90;;;;;;4903428;29;20471;-67
2023/05/31 01:55:48;;;;;;;10.55;6.55;;;11.20;99.90;;;;;;4906775;29;21333;-67
2023/05/31 01:58:17;;;;;;;6.72;5.07;;;11.20;99.90;;;;;;4892656;29;20447;-67
2023/05/31 02:00:44;;;;;;;11.05;7.35;;;11.20;99.90;;;;;;4903358;29;20036;-67
2023/05/31 02:03:11;;;;;;;7.20;4.78;;;11.20;99.90;;;;;;4873743;29;20506;-66
2023/05/31 02:05:53;;;;;;;7.15;5.18;;;11.20;99.90;;;;;;4886639;29;20047;-67
2023/05/31 02:08:19;;;;;;;7.68;5.32;;;11.20;99.90;;;;;;4904657;29;20047;-66
2023/05/31 02:10:46;;;;;;;8.52;5.70;;;11.20;99.90;;;;;;4880103;29;20043;-67
2023/05/31 02:13:13;;;;;;;9.05;6.78;;;11.10;99.90;;;;;;4902547;29;20314;-67
2023/05/31 02:15:41;;;;;;;8.85;6.05;;;11.10;99.90;;;;;;4903484;29;20043;-67
2023/05/31 02:18:07;;;;;;;12.25;7.32;;;11.10;99.90;;;;;;4888755;29;20035;-67
2023/05/31 02:20:34;;;;;;;9.95;6.20;;;11.10;99.90;;;;;;4904074;29;20518;-67
2023/05/31 02:23:01;;;;;;;8.82;6.43;;;11.10;99.90;;;;;;4892252;29;20384;-67
2023/05/31 02:25:27;;;;;;;9.07;6.43;;;11.10;99.90;;;;;;4887561;29;20048;-68
2023/05/31 02:27:53;;;;;;;8.30;6.57;;;11.00;99.90;;;;;;4885870;29;20417;-68
2023/05/31 02:30:26;;;;;;;9.38;5.55;;;11.00;99.90;;;;;;4895936;29;20051;-67
2023/05/31 02:32:53;;;;;;;7.70;5.18;;;11.00;99.90;;;;;;4870059;29;21054;-67
2023/05/31 02:35:20;;;;;;;8.65;6.38;;;11.00;99.90;;;;;;4903469;29;20676;-68
2023/05/31 02:37:48;;;;;;;12.45;8.13;;;10.90;99.90;;;;;;4902936;29;20465;-68
2023/05/31 02:40:14;;;;;;;12.55;7.68;;;10.90;99.90;;;;;;4885482;29;20050;-68
2023/05/31 02:42:42;;;;;;;13.23;7.43;;;10.90;99.90;;;;;;4907858;29;20035;-67
2023/05/31 02:45:09;;;;;;;9.38;6.63;;;10.90;99.90;;;;;;4906486;29;20020;-67
2023/05/31 02:47:38;;;;;;;11.40;6.20;;;10.90;99.90;;;;;;4904464;29;20046;-67
2023/05/31 02:50:09;;;;;;;12.90;8.52;;;10.90;99.90;;;;;;4896626;29;20046;-67
2023/05/31 02:52:38;;;;;;;14.60;10.07;;;10.90;99.90;;;;;;4900872;29;20334;-68
2023/05/31 02:55:13;;;;;;;10.38;7.15;;;10.90;99.90;;;;;;4903030;29;20051;-67
2023/05/31 02:57:58;;;;;;;15.52;10.85;;;10.80;99.90;;;;;;4903881;28;20036;-67
2023/05/31 03:00:25;;;;;;;13.23;8.65;;;10.90;99.90;;;;;;4893388;29;20392;-67
2023/05/31 03:02:52;;;;;;;11.73;8.02;;;10.90;99.90;;;;;;4874225;29;20036;-67
2023/05/31 03:05:41;;;;;;;12.30;7.70;;;10.90;99.90;;;;;;4902567;29;20515;-68
2023/05/31 03:08:08;;;;;;;11.75;9.43;;;10.90;99.90;;;;;;4890069;29;20125;-68
2023/05/31 03:10:34;;;;;;;11.38;7.82;;;10.90;99.90;;;;;;4880056;29;20448;-67
2023/05/31 03:13:01;;;;;;;14.13;8.60;;;10.90;99.90;;;;;;4886058;29;20043;-68
2023/05/31 03:15:28;;;;;;;11.15;6.72;;;10.90;99.90;;;;;;4885904;29;20046;-68
2023/05/31 03:17:55;;;;;;;12.27;7.45;;;10.90;99.90;;;;;;4902430;29;20035;-67
2023/05/31 03:20:22;;;;;;;14.98;9.27;;;10.80;99.90;;;;;;4879443;29;20043;-67
2023/05/31 03:22:48;;;;;;;14.65;9.88;;;10.80;99.90;;;;;;4886601;29;20039;-67
2023/05/31 03:25:15;;;;;;;11.35;8.05;;;10.80;99.90;;;;;;4890639;29;21211;-68
2023/05/31 03:27:41;;;;;;;12.95;9.43;;;10.80;99.90;;;;;;4906302;28;20056;-68
2023/05/31 03:30:08;;;;;;;12.18;7.97;;;10.80;99.90;;;;;;4882685;29;20023;-67
2023/05/31 03:32:43;;;;;;;11.57;8.02;;;10.80;99.90;;;;;;4885288;29;20051;-68
2023/05/31 03:35:09;;;;;;;9.80;6.70;;;10.80;99.90;;;;;;4902691;29;20035;-68
2023/05/31 03:37:37;;;;;;;10.85;8.07;;;10.70;99.90;;;;;;4885281;29;20048;-68
2023/05/31 03:40:08;;;;;;;11.13;7.00;;;10.70;99.90;;;;;;4863067;29;21416;-68
2023/05/31 03:42:35;;;;;;;12.65;7.65;;;10.70;99.90;;;;;;4902223;29;20039;-67
2023/05/31 03:45:02;;;;;;;9.82;7.05;;;10.80;99.90;;;;;;4904714;29;20043;-67
2023/05/31 03:47:29;;;;;;;10.77;7.10;;;10.80;99.90;;;;;;4889500;29;20043;-68
2023/05/31 03:49:56;;;;;;;10.55;7.72;;;10.80;99.90;;;;;;4899218;29;20027;-68
2023/05/31 03:52:22;;;;;;;14.70;9.23;;;10.80;99.90;;;;;;4900307;29;20043;-68
2023/05/31 03:54:49;;;;;;;13.45;8.70;;;10.80;99.90;;;;;;4884864;29;20058;-67
2023/05/31 03:57:16;;;;;;;18.80;10.77;;;10.80;99.90;;;;;;4883523;29;20038;-68
2023/05/31 03:59:42;;;;;;;14.18;8.57;;;10.90;99.90;;;;;;4879221;29;20709;-67
2023/05/31 04:02:08;;;;;;;13.13;9.23;;;10.90;99.90;;;;;;4884794;29;20059;-67
2023/05/31 04:04:35;;;;;;;11.35;8.23;;;10.90;99.90;;;;;;4903059;29;20062;-67
2023/05/31 04:07:02;;;;;;;14.15;9.43;;;10.90;99.90;;;;;;4889625;29;20051;-67
2023/05/31 04:09:28;;;;;;;15.05;9.25;;;10.90;99.90;;;;;;4885478;29;20039;-67
2023/05/31 04:11:54;;;;;;;18.15;9.95;;;11.00;99.90;;;;;;4898985;29;20043;-67
2023/05/31 04:14:21;;;;;;;11.80;8.23;;;11.00;99.90;;;;;;4883899;29;20195;-68
2023/05/31 04:16:48;;;;;;;11.88;8.40;;;11.00;99.90;;;;;;4884098;29;20395;-68
2023/05/31 04:19:15;;;;;;;13.57;9.07;;;11.10;99.90;;;;;;4884194;29;20391;-68
2023/05/31 04:21:41;;;;;;;16.33;10.10;;;11.10;99.90;;;;;;4894442;29;20411;-67
2023/05/31 04:24:09;;;;;;;17.27;10.38;;;11.20;99.90;;;;;;4885851;29;20740;-68
2023/05/31 04:26:35;;;;;;;12.80;9.48;;;11.20;99.90;;;;;;4904666;28;20060;-68
2023/05/31 04:29:03;;;;;;;14.77;9.90;;;11.20;99.90;;;;;;4889997;29;20042;-68
2023/05/31 04:31:30;;;;;;;16.33;11.00;;;11.30;99.90;;;;;;4882921;29;20055;-67
2023/05/31 04:33:57;;;;;;;15.98;10.63;;;11.40;99.90;;;;;;4868742;29;20039;-67
2023/05/31 04:36:24;;;;;;;14.45;11.20;;;11.40;99.90;;;;;;4899078;29;20035;-68
2023/05/31 04:38:51;;;;;;;16.00;10.90;;;11.50;99.90;;;;;;4900214;29;20055;-68
2023/05/31 04:41:26;;;;;;;13.10;8.85;;;11.50;99.90;;;;;;4878886;29;20031;-67
2023/05/31 04:43:53;;;;;;;12.43;9.55;;;11.60;99.90;;;;;;4885965;29;21607;-67
2023/05/31 04:46:22;;;;;;;14.02;10.52;;;11.60;99.90;;;;;;4888944;29;20851;-68
2023/05/31 04:48:51;;;;;;;17.48;12.63;;;11.70;99.90;;;;;;4888079;29;20463;-67
2023/05/31 04:51:18;;;;;;;20.63;12.07;;;11.80;99.90;;;;;;4884655;29;20030;-68
2023/05/31 04:53:48;;;;;;;20.08;13.30;;;11.80;99.90;;;;;;4903985;29;20038;-68
2023/05/31 04:56:17;;;;;;;18.40;10.98;;;11.90;99.90;;;;;;4889204;29;20039;-67
2023/05/31 04:58:43;;;;;;;18.95;12.18;;;11.90;99.90;;;;;;4905338;29;20487;-67
2023/05/31 05:01:12;;;;;;;20.95;13.60;;;12.00;99.90;;;;;;4863769;29;20036;-68
2023/05/31 05:03:53;;;;;;;17.25;13.52;;;12.10;99.90;;;;;;4872728;29;22217;-67
2023/05/31 05:06:19;;;;;;;18.13;12.15;;;12.20;99.90;;;;;;4886753;29;20031;-68
2023/05/31 05:08:46;;;;;;;16.60;11.70;;;12.20;99.90;;;;;;4891283;29;20394;-68
2023/05/31 05:11:14;;;;;;;18.38;11.90;;;12.40;99.90;;;;;;4882197;29;20050;-67
2023/05/31 05:13:41;;;;;;;19.63;12.18;;;12.40;99.90;;;;;;4889457;29;20047;-68
2023/05/31 05:16:08;;;;;;;14.63;10.20;;;12.50;99.90;;;;;;4888317;29;20654;-68
2023/05/31 05:18:35;;;;;;;15.10;11.48;;;12.60;99.90;;;;;;4884769;29;20531;-66
2023/05/31 05:21:03;;;;;;;13.68;9.63;;;12.80;99.90;;;;;;4877281;29;20040;-66
2023/05/31 05:23:33;;;;;;;14.43;11.32;;;12.90;99.90;;;;;;4886708;29;20032;-68
2023/05/31 05:26:00;;;;;;;16.45;11.68;;;13.00;99.90;;;;;;4886716;29;20759;-68
2023/05/31 05:28:28;;;;;;;14.82;11.35;;;13.10;99.90;;;;;;4901257;28;20781;-68
2023/05/31 05:30:55;;;;;;;16.20;11.30;;;13.30;99.90;;;;;;4863877;29;20032;-68
2023/05/31 05:33:22;;;;;;;17.88;12.15;;;13.40;99.90;;;;;;4876141;29;20681;-68
2023/05/31 05:35:49;;;;;;;15.68;10.75;;;13.50;99.90;;;;;;4891869;29;20051;-68
2023/05/31 05:38:16;;;;;;;16.08;11.25;;;13.60;99.90;;;;;;4885216;29;20032;-68
2023/05/31 05:40:42;;;;;;;12.68;10.68;;;13.70;99.90;;;;;;4878828;29;20038;-68
2023/05/31 05:43:09;;;;;;;20.48;12.05;;;13.80;99.90;;;;;;4902845;29;21107;-67
2023/05/31 05:45:47;;;;;;;17.40;11.48;;;14.00;99.90;;;;;;4886871;29;20078;-68
2023/05/31 05:48:14;;;;;;;15.40;10.50;;;14.10;99.90;;;;;;4902502;29;20047;-69
2023/05/31 05:50:40;;;;;;;16.77;10.40;;;14.30;99.90;;;;;;4895838;29;20486;-68
2023/05/31 05:53:07;;;;;;;14.52;11.30;;;14.30;99.90;;;;;;4906006;29;20051;-68
2023/05/31 05:55:34;;;;;;;15.23;10.82;;;14.50;99.90;;;;;;4891273;29;20028;-67
2023/05/31 05:58:02;;;;;;;13.45;9.15;;;14.60;99.90;;;;;;4891659;29;20549;-68
2023/05/31 06:00:48;;;;;;;13.55;9.93;;;14.70;99.90;;;;;;4882072;29;20534;-68
2023/05/31 06:03:15;;;;;;;13.32;9.65;;;15.00;99.90;;;;;;4888147;29;20041;-68
2023/05/31 06:05:42;;;;;;;13.57;9.82;;;15.10;99.90;;;;;;4886922;29;20043;-68
2023/05/31 06:08:10;;;;;;;15.70;9.80;;;15.30;99.90;;;;;;4885055;29;20031;-68
2023/05/31 06:10:37;;;;;;;12.73;8.07;;;15.60;99.90;;;;;;4878685;29;20051;-68
2023/05/31 06:13:04;;;;;;;13.43;8.80;;;15.90;99.90;;;;;;4887941;29;20036;-68
2023/05/31 06:15:34;;;;;;;9.63;7.07;;;16.20;99.90;;;;;;4891762;29;20939;-68
2023/05/31 06:18:00;;;;;;;10.23;7.85;;;16.50;99.90;;;;;;4875274;29;20039;-68
2023/05/31 06:20:27;;;;;;;10.13;7.45;;;16.90;99.90;;;;;;4899467;29;20043;-68
2023/05/31 06:22:54;;;;;;;13.68;9.02;;;17.10;99.90;;;;;;4886026;29;20042;-67
2023/05/31 06:25:23;;;;;;;12.05;7.72;;;17.30;99.90;;;;;;4902370;29;21624;-69
2023/05/31 06:27:50;;;;;;;8.90;6.43;;;17.30;99.90;;;;;;4870362;29;20340;-68
2023/05/31 06:30:17;;;;;;;9.23;6.43;;;17.30;99.90;;;;;;4881922;29;20043;-68
2023/05/31 06:32:46;;;;;;;11.93;8.48;;;17.40;99.90;;;;;;4888081;29;20035;-69
2023/05/31 06:35:19;;;;;;;10.60;7.32;;;17.50;99.90;;;;;;4886541;29;20044;-68
2023/05/31 06:37:46;;;;;;;8.57;6.95;;;17.60;99.90;;;;;;4892490;29;20039;-68
2023/05/31 06:40:13;;;;;;;8.88;5.10;;;17.80;99.90;;;;;;4884504;29;20620;-68
2023/05/31 06:42:40;;;;;;;8.30;5.57;;;18.10;99.90;;;;;;4888031;29;20593;-68
2023/05/31 06:45:25;;;;;;;7.45;4.72;;;18.30;99.90;;;;;;4903762;29;20036;-68
2023/05/31 06:48:11;;;;;;;10.65;5.68;;;18.30;99.90;;;;;;4902542;29;21373;-69
2023/05/31 06:50:56;;;;;;;10.30;5.35;;;18.30;99.90;;;;;;4880279;29;20038;-68
2023/05/31 06:53:42;;;;;;;11.43;4.00;;;18.40;99.90;;;;;;4892126;29;20052;-68
2023/05/31 06:56:20;;;;;;;10.77;5.80;;;18.40;99.90;;;;;;4887840;29;20102;-67
2023/05/31 06:58:48;;;;;;;7.03;4.38;;;18.50;99.90;;;;;;4874816;29;20043;-69
2023/05/31 07:01:14;;;;;;;7.43;4.53;;;18.60;99.90;;;;;;4889828;29;20028;-68
2023/05/31 07:03:40;;;;;;;8.02;4.25;;;18.70;99.90;;;;;;4888802;29;20057;-69
2023/05/31 07:06:07;;;;;;;7.72;4.25;;;18.80;99.90;;;;;;4886148;29;20047;-67
2023/05/31 07:08:33;;;;;;;6.90;3.17;;;18.90;99.90;;;;;;4871169;29;20040;-68
2023/05/31 07:11:18;;;;;;;9.93;4.97;;;19.00;99.90;;;;;;4897448;29;20082;-67
2023/05/31 07:13:45;;;;;;;7.10;4.18;;;19.20;99.90;;;;;;4884708;29;20028;-69
2023/05/31 07:16:11;;;;;;;7.97;4.05;;;19.20;99.90;;;;;;4886001;29;20036;-68
2023/05/31 07:18:38;;;;;;;7.95;4.68;;;19.30;99.90;;;;;;4887741;29;20031;-68
2023/05/31 07:21:08;;;;;;;7.30;3.70;;;19.40;99.90;;;;;;4881804;29;20042;-68
2023/05/31 07:23:34;;;;;;;6.78;3.90;;;19.50;99.90;;;;;;4891884;29;20039;-68
2023/05/31 07:26:02;;;;;;;9.05;4.97;;;19.70;99.90;;;;;;4904543;29;20059;-67
2023/05/31 07:28:28;;;;;;;8.07;4.45;;;19.80;99.90;;;;;;4901640;28;20043;-68
2023/05/31 07:30:54;;;;;;;9.25;4.95;;;19.90;99.90;;;;;;4892270;29;20036;-68
2023/05/31 07:33:21;;;;;;;9.13;4.53;;;19.90;99.90;;;;;;4883294;29;20119;-68
2023/05/31 07:35:47;;;;;;;7.68;4.55;;;19.90;99.90;;;;;;4887846;29;20448;-68
2023/05/31 07:38:14;;;;;;;5.55;3.40;;;19.90;99.90;;;;;;4902156;29;20032;-68
2023/05/31 07:40:40;;;;;;;8.35;4.63;;;20.10;99.90;;;;;;4896426;29;20032;-68
2023/05/31 07:43:07;;;;;;;9.13;3.95;;;20.20;99.90;;;;;;4888815;29;20058;-68
2023/05/31 07:45:34;;;;;;;11.77;4.35;;;20.40;99.90;;;;;;4906836;29;20642;-69
2023/05/31 07:48:00;;;;;;;6.82;3.55;;;20.50;99.90;;;;;;4903171;29;20490;-69
2023/05/31 07:50:26;;;;;;;8.60;5.13;;;20.70;99.90;;;;;;4892466;29;20043;-68
2023/05/31 07:52:52;;;;;;;10.18;6.53;;;20.90;99.90;;;;;;4886769;29;20530;-68
2023/05/31 07:55:19;;;;;;;8.35;4.63;;;21.00;99.90;;;;;;4867943;29;20048;-68
2023/05/31 07:57:45;;;;;;;7.32;3.85;;;21.10;99.90;;;;;;4899524;29;20056;-68
2023/05/31 08:00:13;;;;;;;8.68;4.72;;;21.10;99.90;;;;;;4894150;29;20672;-67
2023/05/31 08:02:41;;;;;;;7.55;3.90;;;21.10;99.90;;;;;;4904082;29;20059;-67
2023/05/31 08:05:08;;;;;;;5.50;2.70;;;21.10;99.90;;;;;;4906184;29;20031;-67
2023/05/31 08:07:35;;;;;;;6.30;3.75;;;21.30;99.90;;;;;;4906723;29;20483;-67
2023/05/31 08:10:01;;;;;;;6.72;2.75;;;21.40;99.90;;;;;;4861782;29;20059;-66
2023/05/31 08:12:28;;;;;;;6.95;3.65;;;21.60;99.90;;;;;;4901764;29;20039;-67
2023/05/31 08:14:54;;;;;;;8.63;4.28;;;21.90;99.90;;;;;;4883547;29;20043;-67
2023/05/31 08:17:20;;;;;;;16.25;10.57;;;22.10;99.90;;;;;;4883606;29;20044;-66
2023/05/31 08:19:47;;;;;;;8.25;5.93;;;22.30;99.40;;;;;;4877491;29;20486;-67
2023/05/31 08:22:13;;;;;;;7.40;4.35;;;22.40;99.50;;;;;;4899084;29;20042;-67
2023/05/31 08:24:40;;;;;;;5.97;3.58;;;22.60;99.30;;;;;;4901677;29;20439;-67
2023/05/31 08:27:06;;;;;;;6.72;3.83;;;22.70;99.00;;;;;;4904632;29;20047;-66
2023/05/31 08:29:33;;;;;;;7.22;3.05;;;22.70;98.40;;;;;;4900125;29;20475;-67
2023/05/31 08:31:59;;;;;;;6.90;3.38;;;22.80;98.50;;;;;;4896545;29;20805;-67
2023/05/31 08:34:27;;;;;;;9.27;4.05;;;22.90;98.20;;;;;;4899329;29;20160;-67
2023/05/31 08:36:53;;;;;;;7.50;3.83;;;22.90;97.90;;;;;;4899948;29;20050;-67
2023/05/31 08:39:19;;;;;;;6.15;3.13;;;23.00;97.60;;;;;;4880856;29;20030;-66
2023/05/31 08:42:00;;;;;;;6.50;3.40;;;23.10;97.20;;;;;;4880012;29;20342;-67
2023/05/31 08:44:27;;;;;;;6.35;3.40;;;23.20;96.80;;;;;;4902790;29;20052;-67
2023/05/31 08:47:19;;;;;;;3.65;1.98;;;23.20;96.50;;;;;;4888652;29;20054;-66
2023/05/31 08:49:46;;;;;;;3.95;1.73;;;23.30;96.00;;;;;;4899006;29;20043;-66
2023/05/31 08:52:13;;;;;;;7.13;3.53;;;23.40;96.00;;;;;;4883901;29;20040;-67
2023/05/31 08:54:42;;;;;;;4.97;2.33;;;23.50;95.40;;;;;;4877087;29;20052;-67
2023/05/31 08:57:10;;;;;;;3.40;2.20;;;23.70;95.40;;;;;;4900496;29;20695;-67
2023/05/31 08:59:37;;;;;;;8.18;4.63;;;23.80;94.90;;;;;;4896454;29;20036;-70
2023/05/31 09:02:04;;;;;;;8.60;4.55;;;23.80;94.20;;;;;;4883717;29;20039;-68
2023/05/31 09:04:31;;;;;;;7.70;3.83;;;23.70;94.10;;;;;;4900793;29;20468;-69
2023/05/31 09:06:57;;;;;;;6.05;2.50;;;23.80;94.20;;;;;;4887010;29;20431;-68
2023/05/31 09:09:23;;;;;;;5.00;1.60;;;23.90;93.60;;;;;;4885663;29;20093;-68
2023/05/31 09:11:50;;;;;;;7.95;2.72;;;24.10;93.30;;;;;;4900944;29;20043;-69
2023/05/31 09:14:16;;;;;;;7.07;3.25;;;24.20;93.00;;;;;;4884594;29;20043;-69
2023/05/31 09:16:42;;;;;;;5.95;2.40;;;24.30;92.40;;;;;;4900073;29;20559;-68
2023/05/31 09:19:09;;;;;;;7.03;2.60;;;24.40;92.40;;;;;;4882168;29;20475;-69
2023/05/31 09:21:40;;;;;;;8.60;4.53;;;24.50;91.90;;;;;;4877857;29;20125;-69
2023/05/31 09:24:07;;;;;;;8.98;4.78;;;24.50;91.50;;;;;;4885096;29;20048;-70
2023/05/31 09:26:33;;;;;;;7.45;3.15;;;24.60;91.70;;;;;;4900177;29;20051;-70
2023/05/31 09:29:00;;;;;;;7.88;2.85;;;24.70;91.10;;;;;;4902550;29;20039;-67
2023/05/31 09:31:27;;;;;;;4.43;1.95;;;24.80;90.80;;;;;;4879217;29;20036;-67
2023/05/31 09:33:54;;;;;;;5.32;2.38;;;24.90;90.70;;;;;;4887402;29;20042;-67
2023/05/31 09:36:28;;;;;;;4.82;1.42;;;24.90;90.50;;;;;;4900260;29;20036;-67
2023/05/31 09:39:03;;;;;;;6.43;2.55;;;25.10;90.40;;;;;;4899082;29;20969;-67
2023/05/31 09:41:31;;;;;;;7.63;2.67;;;25.20;89.80;;;;;;4881004;29;20483;-67
2023/05/31 09:43:57;;;;;;;4.28;1.63;;;25.20;89.80;;;;;;4901961;29;21280;-67
2023/05/31 09:46:25;;;;;;;4.72;2.35;;;25.20;89.70;;;;;;4901986;29;20055;-67
2023/05/31 09:49:03;;;;;;;3.92;1.23;;;25.30;88.40;;;;;;4902025;29;20191;-67
2023/05/31 09:51:33;;;;;;;5.13;1.40;;;25.40;89.10;;;;;;4881748;29;20044;-67
2023/05/31 09:54:16;;;;;;;7.30;1.95;;;25.50;87.50;;;;;;4906437;29;20012;-67
2023/05/31 09:56:43;;;;;;;6.47;1.63;;;25.50;86.10;;;;;;4884795;29;20039;-66
2023/05/31 09:59:11;;;;;;;5.28;1.80;;;25.50;86.10;;;;;;4902682;29;20082;-67
2023/05/31 10:01:37;;;;;;;4.32;1.30;;;25.60;85.40;;;;;;4880423;29;20500;-67
2023/05/31 10:04:05;;;;;;;4.80;1.88;;;25.80;85.60;;;;;;4902896;29;20036;-67
2023/05/31 10:06:34;;;;;;;4.93;1.20;;;25.90;85.00;;;;;;4887444;29;20031;-67
2023/05/31 10:09:02;;;;;;;4.05;1.20;;;26.10;84.60;;;;;;4887770;29;20050;-67
2023/05/31 10:11:34;;;;;;;3.58;1.27;;;26.30;84.10;;;;;;4900255;29;20038;-68
2023/05/31 10:14:12;;;;;;;5.18;1.95;;;26.50;82.90;;;;;;4890537;29;20340;-68
2023/05/31 10:16:45;;;;;;;4.30;1.40;;;26.50;81.90;;;;;;4905778;29;20044;-69
2023/05/31 10:19:17;;;;;;;3.58;1.30;;;26.60;81.40;;;;;;4902241;29;20044;-68
2023/05/31 10:21:43;;;;;;;3.15;1.17;;;26.60;81.20;;;;;;4880233;28;20471;-68
2023/05/31 10:24:28;;;;;;;4.60;1.50;;;26.80;81.70;;;;;;4901245;29;20495;-68
2023/05/31 10:27:24;;;;;;;8.25;2.30;;;27.00;81.10;;;;;;4871152;29;20558;-68
2023/05/31 10:29:56;;;;;;;5.13;1.60;;;27.10;79.50;;;;;;4866301;29;20054;-67
2023/05/31 10:32:28;;;;;;;6.70;1.48;;;27.10;79.20;;;;;;4905221;29;20379;-69
2023/05/31 10:34:54;;;;;;;5.45;1.98;;;27.20;78.80;;;;;;4906607;29;20028;-68
2023/05/31 10:37:21;;;;;;;6.50;2.13;;;27.20;78.40;;;;;;4889637;29;20422;-68
2023/05/31 10:40:06;;;;;;;7.25;2.03;;;27.50;77.70;;;;;;4865200;29;20063;-67
2023/05/31 10:42:47;;;;;;;6.50;2.60;;;27.80;76.30;;;;;;4871147;29;20069;-67
2023/05/31 10:45:19;;;;;;;4.80;1.17;;;27.90;75.60;;;;;;4902183;29;21175;-67
2023/05/31 10:48:14;;;;;;;4.78;1.60;;;28.10;75.80;;;;;;4903032;29;20040;-68
2023/05/31 10:50:55;;;;;;;5.40;1.80;;;28.40;75.10;;;;;;4896970;29;20476;-68
2023/05/31 10:53:23;;;;;;;5.15;1.70;;;28.60;74.40;;;;;;4890452;29;20047;-68
2023/05/31 10:55:49;;;;;;;5.53;1.70;;;28.90;74.20;;;;;;4905396;29;20039;-69
2023/05/31 10:58:38;;;;;;;5.32;1.13;;;29.20;71.70;;;;;;4905450;29;20044;-68
2023/05/31 11:01:06;;;;;;;5.30;1.63;;;29.40;69.80;;;;;;4893595;29;20436;-68
2023/05/31 11:03:43;;;;;;;5.35;1.52;;;29.50;69.30;;;;;;4884033;29;21413;-69
2023/05/31 11:06:13;;;;;;;4.93;1.42;;;29.90;69.10;;;;;;4898217;29;20538;-67
2023/05/31 11:09:00;;;;;;;4.30;1.30;;;30.20;68.00;;;;;;4881261;29;20035;-68
2023/05/31 11:11:32;;;;;;;6.30;2.90;;;30.30;66.40;;;;;;4888498;29;20036;-67
2023/05/31 11:14:05;;;;;;;4.50;1.38;;;30.50;65.50;;;;;;4900993;29;20046;-68
2023/05/31 11:16:34;;;;;;;7.05;1.52;;;30.60;64.40;;;;;;4889285;29;20039;-67
2023/05/31 11:19:13;;;;;;;7.07;1.40;;;30.60;63.20;;;;;;4903882;29;20487;-68
2023/05/31 11:21:54;;;;;;;5.20;1.40;;;30.60;62.50;;;;;;4876792;29;20063;-68
2023/05/31 11:24:31;;;;;;;5.90;1.80;;;30.80;63.20;;;;;;4899990;29;20502;-68
2023/05/31 11:27:02;;;;;;;4.68;1.38;;;31.10;62.60;;;;;;4899272;29;20059;-68
2023/05/31 11:29:52;;;;;;;5.70;1.85;;;31.30;61.40;;;;;;4895351;29;20039;-68
2023/05/31 11:32:20;;;;;;;4.47;1.23;;;31.50;60.80;;;;;;4882888;29;20035;-69
2023/05/31 11:34:56;;;;;;;5.53;1.80;;;31.80;59.70;;;;;;4898563;29;20023;-67
2023/05/31 11:37:27;;;;;;;4.35;1.30;;;31.90;59.60;;;;;;4886526;29;20035;-68
2023/05/31 11:39:55;;;;;;;5.38;1.50;;;32.10;59.80;;;;;;4898321;29;20035;-68
2023/05/31 11:42:21;;;;;;;6.35;2.20;;;32.30;58.70;;;;;;4901709;29;20047;-67
2023/05/31 11:44:50;;;;;;;5.65;1.42;;;32.50;57.80;;;;;;4897237;29;20040;-68
2023/05/31 11:47:20;;;;;;;3.63;1.25;;;32.50;57.50;;;;;;4882777;29;20043;-68
2023/05/31 11:49:47;;;;;;;4.40;1.50;;;32.60;56.90;;;;;;4863197;29;20519;-68
2023/05/31 11:52:16;;;;;;;4.72;1.58;;;32.80;56.40;;;;;;4883080;29;20035;-67
2023/05/31 11:54:47;;;;;;;4.63;1.45;;;33.10;56.60;;;;;;4901220;29;20036;-67
2023/05/31 11:57:20;;;;;;;5.85;1.48;;;33.50;55.70;;;;;;4872511;29;20066;-68
2023/05/31 11:59:46;;;;;;;6.80;2.08;;;33.60;55.20;;;;;;4901448;29;20039;-68
2023/05/31 12:02:13;;;;;;;5.55;1.65;;;33.80;55.90;;;;;;4903996;29;20039;-68
2023/05/31 12:04:41;;;;;;;6.53;2.28;;;33.70;55.10;;;;;;4902157;29;20723;-68
2023/05/31 12:07:11;;;;;;;4.57;1.77;;;33.80;55.40;;;;;;4901551;29;20364;-68
2023/05/31 12:09:37;;;;;;;7.15;1.90;;;34.00;54.20;;;;;;4897192;29;20050;-67
2023/05/31 12:12:07;;;;;;;4.97;1.75;;;33.70;53.70;;;;;;4900734;29;20032;-69
2023/05/31 12:14:35;;;;;;;6.82;2.28;;;33.80;54.30;;;;;;4902926;29;20031;-68
2023/05/31 12:17:05;;;;;;;6.95;2.15;;;34.20;54.00;;;;;;4886177;29;20050;-67
2023/05/31 12:19:32;;;;;;;4.10;1.17;;;34.60;53.20;;;;;;4885845;29;20049;-69
2023/05/31 12:22:00;;;;;;;3.70;1.35;;;34.90;52.60;;;;;;4902348;29;20782;-69
2023/05/31 12:24:27;;;;;;;5.65;1.40;;;35.40;52.10;;;;;;4905997;29;20043;-68
2023/05/31 12:26:54;;;;;;;8.38;2.35;;;35.70;51.20;;;;;;4900739;29;20503;-68
2023/05/31 12:29:30;;;;;;;3.42;1.33;;;35.50;50.00;;;;;;4897211;29;20051;-68
2023/05/31 12:32:06;;;;;;;4.85;1.48;;;35.20;50.40;;;;;;4881367;29;20035;-67
2023/05/31 12:34:37;;;;;;;6.85;1.70;;;35.30;50.90;;;;;;4900344;29;20065;-68
2023/05/31 12:37:08;;;;;;;4.93;1.27;;;35.70;51.20;;;;;;4901099;29;20040;-68
2023/05/31 12:39:35;;;;;;;7.10;1.50;;;36.20;50.40;;;;;;4895013;29;20487;-68
2023/05/31 12:42:02;;;;;;;7.32;1.65;;;36.40;49.80;;;;;;4901828;29;20043;-68
2023/05/31 12:44:30;;;;;;;3.65;1.20;;;36.70;49.20;;;;;;4903472;29;20409;-69
2023/05/31 12:47:02;;;;;;;8.23;1.80;;;37.00;48.90;;;;;;4896767;29;20016;-68
2023/05/31 12:49:32;;;;;;;4.00;1.15;;;37.40;48.60;;;;;;4878492;29;20987;-68
2023/05/31 12:52:10;;;;;;;5.72;1.30;;;37.70;48.10;;;;;;4896885;29;20051;-68
2023/05/31 12:54:38;;;;;;;3.75;1.48;;;37.70;47.60;;;;;;4899514;29;20051;-67